Hulbert, MI (49748)

8:51 AM EDT on April 26, 2015 (GMT -0400)
Luce County | | Change Station
CLOSE
Current Station
Airport
Location: Newberry,
Elevation: 869 ft
Nearby Weather Stations

Elev 869 ft 46.31 °N, 85.46 °W | Updated 17 minutes ago

Partly Cloudy
Partly Cloudy
34 °F
Feels Like 30 °F
N
5
Wind Variable Wind from NNW

Today
High -- | Low -- °F
--% Chance of Precip.
Yesterday
High -- | Low -- °F
Precip. -- in
6:35 AM 8:42 PM
First Quarter, 55% visible
Pressure 30.02 in
Visibility 10.0 miles
Clouds Clear
Windchill 30 °F
Dew Point 28 °F
Humidity 79%
Rainfall 0.00 in
Snow Depth Not available.
UV 1 out of 12
Pollen 9.80 out of 12
Air Quality Not available.
Flu Activity Regional
METAR KERY 261234Z AUTO 34004KT 10SM CLR 01/M02 A3002 RMK AO2 T00101023

More Conditions Fewer Conditions

Pressure 30.02 in
Visibility 10.0 miles
Clouds Clear
Windchill 30 °F
Dew Point 28 °F
Humidity 79%
Rainfall 0.00 in
Snow Depth Not available.
UV 1 out of 12
Pollen 9.80 out of 12
Air Quality Not available.
Flu Activity Regional
METAR KERY 261234Z AUTO 34004KT 10SM CLR 01/M02 A3002 RMK AO2 T00101023

More Conditions Fewer Conditions

The full scope of the disaster following a powerful 7.8-magnitude earthquake in Nepal may not come into view for days, but global charities are already sending emergency aid. Click to see how you can help.
Nowcast | as of 6:00 am EDT on April 26, 2015

At 7 am...clear. Temperature 32. North winds 6 mph. At 9 am...mostly clear. Temperature 36. North winds 7 mph. At 11 am...partly cloudy. Temperature 40. Northwest winds 8 mph. At 1 PM...partly cloudy. Temperature 43. Northwest winds 11 mph.

×

10-Day Weather Forecast

Almanac

Astronomy

Apr. 26, 2015 Rise Set
Actual Time
Civil Twilight
Nautical Twilight
Astronomical Twilight
Moon
Length of Visible Light
Length of Day
Tomorrow will be .
, % of the Moon is Illuminated

Today's Extremes

State Highs State Lows

Community

WunderPhotos

Upload Photos

1,816,978 photos uploaded!

WunderBlogs® & News

Nearby

Air Quality

  Air Quality AQ Index Pollutant
Not available.

Snow Depth

Station Depth Elevation

Earthquake Activity

City Distance Mag. Time & Date
Minimum magnitude displayed is 2.5.

Coastal Water Temperatures

Place Temperature

Stations

Nearby Weather Stations

Station Location Temp. Windchill Dew Point Humidity Wind Precip. Elev Updated Type